Time;durP1;ratioP1;P1;durP2;ratioP2;P2;SDS_P1;SDS_P2;PMS_P1;PMS_P2;Temp;Humidity;BMP_temperature;BMP_pressure;BME280_temperature;BME280_humidity;BME280_pressure;Samples;Min_cycle;Max_cycle;Signal;HPM_P1;HPM_P2
2021/04/22 00:00:15;;;;;;;5.12;2.65;;;;;;;13.21;43.40;101586.37;143740;655;46019;-88
2021/04/22 00:02:45;;;;;;;5.75;2.47;;;;;;;13.18;44.27;101585.63;143740;569;46020;-71
2021/04/22 00:05:30;;;;;;;4.95;2.70;;;;;;;13.13;43.50;101582.22;143741;611;46016;-76
2021/04/22 00:07:58;;;;;;;4.72;2.33;;;;;;;13.08;44.14;101581.47;143740;617;45911;-80
2021/04/22 00:10:45;;;;;;;6.28;2.75;;;;;;;12.99;44.11;101586.06;143740;587;46008;-79
2021/04/22 00:13:16;;;;;;;5.03;2.67;;;;;;;12.92;44.84;101587.13;143741;565;45020;-81
2021/04/22 00:15:44;;;;;;;10.23;2.62;;;;;;;12.86;45.01;101579.34;143739;569;47010;-79
2021/04/22 00:18:12;;;;;;;8.02;2.70;;;;;;;12.80;45.26;101584.78;143739;641;46018;-81
2021/04/22 00:20:40;;;;;;;9.95;2.90;;;;;;;12.72;45.87;101578.81;143740;569;46010;-85
2021/04/22 00:23:12;;;;;;;6.43;2.85;;;;;;;12.64;45.65;101586.88;143740;614;46020;-86
2021/04/22 00:25:42;;;;;;;8.48;3.20;;;;;;;12.59;45.86;101580.84;143741;601;46022;-84
2021/04/22 00:28:12;;;;;;;6.90;3.00;;;;;;;12.53;46.11;101576.59;143740;576;46019;-81
2021/04/22 00:30:40;;;;;;;6.43;3.40;;;;;;;12.48;46.54;101591.62;143743;593;45019;-82
2021/04/22 00:33:11;;;;;;;7.25;3.30;;;;;;;12.40;46.81;101580.38;143742;571;45043;-84
2021/04/22 00:35:38;;;;;;;9.02;3.50;;;;;;;12.34;47.23;101582.28;143743;592;46017;-82
2021/04/22 00:38:07;;;;;;;8.52;3.28;;;;;;;12.31;47.71;101582.31;143741;613;46010;-83
2021/04/22 00:40:35;;;;;;;9.35;3.15;;;;;;;12.30;48.06;101585.87;143739;589;46010;-84
2021/04/22 00:43:06;;;;;;;6.70;2.95;;;;;;;12.29;47.41;101585.91;143740;593;45913;-74
2021/04/22 00:45:34;;;;;;;4.68;2.70;;;;;;;12.27;47.41;101587.69;143741;613;46008;-76
2021/04/22 00:48:01;;;;;;;9.18;3.28;;;;;;;12.22;47.80;101586.91;143739;575;46910;-74
2021/04/22 00:50:32;;;;;;;6.82;2.87;;;;;;;12.21;47.68;101590.47;143741;569;46010;-75
2021/04/22 00:53:01;;;;;;;8.80;2.72;;;;;;;12.17;47.75;101590.50;143741;611;47008;-75
2021/04/22 00:55:30;;;;;;;4.12;2.28;;;;;;;12.14;47.57;101592.34;143743;646;46016;-72
2021/04/22 00:57:58;;;;;;;4.22;2.30;;;;;;;12.11;46.89;101590.66;143738;562;46018;-73
2021/04/22 01:00:34;;;;;;;5.00;2.50;;;;;;;12.10;47.28;101595.94;143740;585;46011;-73
2021/04/22 01:03:02;;;;;;;5.72;2.20;;;;;;;12.06;47.30;101596.91;143742;645;45020;-73
2021/04/22 01:06:03;;;;;;;4.68;2.30;;;;;;;11.95;47.13;101599.75;143741;572;46010;-76
2021/04/22 01:08:30;;;;;;;5.80;2.50;;;;;;;11.87;47.69;101597.22;143742;607;46010;-74
2021/04/22 01:10:58;;;;;;;3.97;2.22;;;;;;;11.81;47.86;101592.94;143739;611;46010;-75
2021/04/22 01:13:25;;;;;;;4.95;2.15;;;;;;;11.81;47.62;101595.59;143741;575;46019;-75
2021/04/22 01:15:52;;;;;;;5.10;2.20;;;;;;;11.80;47.91;101590.34;143741;572;47020;-76
2021/04/22 01:18:19;;;;;;;5.80;2.20;;;;;;;11.82;48.01;101596.44;143738;571;47010;-77
2021/04/22 01:20:50;;;;;;;4.32;2.20;;;;;;;11.78;48.42;101595.66;143741;617;46010;-76
2021/04/22 01:23:17;;;;;;;3.30;2.15;;;;;;;11.74;48.71;101591.34;143741;568;46008;-75
2021/04/22 01:25:51;;;;;;;6.82;2.22;;;;;;;11.73;47.67;101596.59;143744;565;46020;-78
2021/04/22 01:28:27;;;;;;;7.93;2.60;;;;;;;11.69;47.64;101593.19;143738;588;46019;-75
2021/04/22 01:30:57;;;;;;;4.12;1.90;;;;;;;11.64;47.32;101593.25;143739;590;46018;-74
2021/04/22 01:33:27;;;;;;;6.05;2.20;;;;;;;11.58;47.49;101582.84;143739;575;46008;-78
2021/04/22 01:35:58;;;;;;;4.15;2.20;;;;;;;11.56;47.77;101587.25;143743;647;46017;-79
2021/04/22 01:38:30;;;;;;;3.87;2.08;;;;;;;11.57;46.87;101589.00;143741;564;46010;-80
2021/04/22 01:40:59;;;;;;;3.95;2.10;;;;;;;11.59;46.97;101591.59;143741;573;46008;-78
2021/04/22 01:43:28;;;;;;;5.07;2.03;;;;;;;11.59;47.32;101596.88;143739;633;46022;-77
2021/04/22 01:45:56;;;;;;;3.45;2.03;;;;;;;11.55;47.41;101606.59;143742;695;46018;-77
2021/04/22 01:48:26;;;;;;;5.62;2.12;;;;;;;11.51;47.27;101603.13;143739;564;47031;-75
2021/04/22 01:50:54;;;;;;;4.40;2.17;;;;;;;11.48;47.48;101604.94;143742;616;45019;-74
2021/04/22 01:53:25;;;;;;;7.50;2.47;;;;;;;11.43;47.72;101601.56;143741;601;46020;-77
2021/04/22 01:55:53;;;;;;;5.40;2.20;;;;;;;11.37;47.83;101606.91;143741;569;46018;-76
2021/04/22 01:58:23;;;;;;;3.95;2.45;;;;;;;11.31;48.03;101607.88;143738;591;47022;-74
2021/04/22 02:00:54;;;;;;;6.12;3.42;;;;;;;11.23;48.27;101617.66;143740;615;46018;-72
2021/04/22 02:03:23;;;;;;;3.92;2.22;;;;;;;11.17;48.15;101610.75;143742;583;46010;-75
2021/04/22 02:05:50;;;;;;;5.78;2.30;;;;;;;11.11;48.55;101616.97;143740;565;46020;-80
2021/04/22 02:08:23;;;;;;;4.57;2.50;;;;;;;11.10;48.41;101603.81;143740;577;46051;-77
2021/04/22 02:10:51;;;;;;;5.00;2.75;;;;;;;11.10;48.29;101603.81;143740;569;46010;-77
2021/04/22 02:13:25;;;;;;;4.97;2.50;;;;;;;11.09;47.91;101596.84;143742;590;46008;-76
2021/04/22 02:15:54;;;;;;;4.37;2.33;;;;;;;11.07;48.34;101596.88;143741;594;46018;-78
2021/04/22 02:18:23;;;;;;;7.10;2.70;;;;;;;11.10;48.60;101596.81;143740;600;46022;-78
2021/04/22 02:20:50;;;;;;;4.97;2.62;;;;;;;11.10;48.41;101596.81;143743;578;46008;-79
2021/04/22 02:23:21;;;;;;;3.65;2.30;;;;;;;11.11;47.80;101595.06;143742;633;46020;-78
2021/04/22 02:25:49;;;;;;;7.30;2.05;;;;;;;11.14;48.11;101590.63;143742;637;46018;-75
2021/04/22 02:28:17;;;;;;;4.57;1.90;;;;;;;11.21;48.21;101590.50;143743;620;46010;-75
2021/04/22 02:30:45;;;;;;;3.80;2.10;;;;;;;11.26;48.39;101586.03;143741;563;46018;-75
2021/04/22 02:33:17;;;;;;;6.10;2.10;;;;;;;11.27;48.18;101586.00;143739;611;46020;-83
2021/04/22 02:35:47;;;;;;;3.95;2.10;;;;;;;11.28;48.02;101593.00;143747;627;45018;-83
2021/04/22 02:38:16;;;;;;;7.80;2.45;;;;;;;11.29;48.21;101600.03;143740;586;46022;-82
2021/04/22 02:40:48;;;;;;;6.65;2.65;;;;;;;11.31;47.97;101597.34;143743;589;45028;-82
2021/04/22 02:43:18;;;;;;;6.43;2.33;;;;;;;11.31;47.89;101602.63;143742;589;46010;-80
2021/04/22 02:45:50;;;;;;;4.80;2.20;;;;;;;11.28;47.89;101607.94;143742;571;46022;-80
2021/04/22 02:48:18;;;;;;;5.28;2.03;;;;;;;11.18;48.25;101607.19;143740;569;46010;-81
2021/04/22 02:50:49;;;;;;;4.40;2.00;;;;;;;11.08;48.33;101616.13;143741;579;46018;-80
2021/04/22 02:53:16;;;;;;;9.48;2.22;;;;;;;11.01;48.56;101620.63;143742;612;45908;-80
2021/04/22 02:55:45;;;;;;;6.22;2.25;;;;;;;10.94;49.07;101618.97;143743;589;46018;-80
2021/04/22 02:58:14;;;;;;;4.78;2.28;;;;;;;10.90;48.58;101615.53;143740;600;46019;-80
2021/04/22 03:00:43;;;;;;;6.32;2.50;;;;;;;10.86;48.89;101611.19;143741;566;46018;-80
2021/04/22 03:03:10;;;;;;;5.75;2.05;;;;;;;10.83;48.72;101622.63;143740;592;46020;-79
2021/04/22 03:05:38;;;;;;;3.53;2.10;;;;;;;10.84;48.70;101620.88;143744;594;46018;-80
2021/04/22 03:08:06;;;;;;;4.35;2.03;;;;;;;10.86;48.54;101621.72;143742;575;46010;-80
2021/04/22 03:10:34;;;;;;;6.62;2.30;;;;;;;10.90;48.25;101631.28;143741;596;46018;-81
2021/04/22 03:13:03;;;;;;;4.07;2.40;;;;;;;10.92;48.35;101632.16;143741;642;46021;-80
2021/04/22 03:15:31;;;;;;;4.12;2.25;;;;;;;10.95;48.48;101636.50;143743;569;47010;-80
2021/04/22 03:18:00;;;;;;;5.55;2.30;;;;;;;10.92;48.97;101645.28;143741;585;46022;-81
2021/04/22 03:20:27;;;;;;;6.37;2.58;;;;;;;10.91;49.09;101637.44;143742;606;46008;-80
2021/04/22 03:22:54;;;;;;;5.30;2.40;;;;;;;10.91;48.47;101640.91;143743;606;46018;-73
2021/04/22 03:25:24;;;;;;;6.45;2.20;;;;;;;10.92;48.33;101640.03;143742;646;46018;-80
2021/04/22 03:27:52;;;;;;;5.43;2.40;;;;;;;10.93;48.71;101643.50;143740;615;47020;-80
2021/04/22 03:30:26;;;;;;;4.78;2.60;;;;;;;10.93;48.72;101647.00;143741;563;46018;-77
2021/04/22 03:32:56;;;;;;;21.40;3.03;;;;;;;10.94;48.51;101645.25;143743;631;46010;-74
2021/04/22 03:35:24;;;;;;;7.85;2.50;;;;;;;10.93;48.93;101644.38;143742;579;46025;-74
2021/04/22 03:37:52;;;;;;;6.97;2.80;;;;;;;10.93;48.72;101643.50;143741;622;46018;-81
2021/04/22 03:40:22;;;;;;;8.93;2.72;;;;;;;10.94;48.75;101647.88;143742;595;45018;-80
2021/04/22 03:42:50;;;;;;;6.10;2.25;;;;;;;10.95;49.15;101650.50;143741;608;46009;-82
2021/04/22 03:45:18;;;;;;;6.90;2.47;;;;;;;10.94;48.38;101661.88;143743;614;47010;-83
2021/04/22 03:47:46;;;;;;;7.95;2.47;;;;;;;10.94;48.83;101659.25;143739;603;46018;-84
2021/04/22 03:50:17;;;;;;;11.27;2.90;;;;;;;10.94;48.55;101659.25;143743;614;46008;-78
2021/04/22 03:52:44;;;;;;;8.70;2.67;;;;;;;10.95;48.89;101657.50;143742;596;46020;-75
2021/04/22 03:55:13;;;;;;;8.70;2.70;;;;;;;10.95;49.38;101657.50;143742;605;47010;-79
2021/04/22 03:57:41;;;;;;;11.00;3.10;;;;;;;10.95;48.93;101663.63;143739;564;46011;-79
2021/04/22 04:00:12;;;;;;;8.95;2.80;;;;;;;10.95;49.39;101671.50;143741;594;46010;-78
2021/04/22 04:02:39;;;;;;;8.25;2.70;;;;;;;10.98;49.04;101666.19;143742;573;46908;-77
2021/04/22 04:05:07;;;;;;;7.75;2.70;;;;;;;10.98;48.82;101681.97;143743;594;46010;-76
2021/04/22 04:07:35;;;;;;;8.25;3.03;;;;;;;10.97;49.64;101672.34;143742;586;46023;-77
2021/04/22 04:10:05;;;;;;;9.00;2.80;;;;;;;10.98;49.45;101667.97;143744;571;46008;-77
2021/04/22 04:12:32;;;;;;;6.90;2.90;;;;;;;11.00;49.27;101679.31;143741;571;46008;-79
2021/04/22 04:14:59;;;;;;;11.60;2.80;;;;;;;11.01;49.47;101668.78;143742;658;46019;-78
2021/04/22 04:17:26;;;;;;;16.23;3.10;;;;;;;11.04;49.39;101677.53;143740;604;46018;-78
2021/04/22 04:19:54;;;;;;;215.35;78.05;;;;;;;11.07;49.30;101674.84;143742;599;46008;-81
2021/04/22 04:22:21;;;;;;;41.50;16.75;;;;;;;11.08;49.55;101674.81;143744;583;46008;-88
2021/04/22 04:24:48;;;;;;;15.45;4.90;;;;;;;11.10;49.62;101677.41;143743;581;47010;-84
2021/04/22 04:27:15;;;;;;;14.98;3.45;;;;;;;11.13;49.64;101675.62;143742;579;46010;-80
2021/04/22 04:29:42;;;;;;;11.38;3.15;;;;;;;11.19;49.97;101682.53;143741;592;46917;-81
2021/04/22 04:32:10;;;;;;;18.17;4.15;;;;;;;11.26;49.91;101678.94;143743;607;47010;-83
2021/04/22 04:34:38;;;;;;;13.95;2.92;;;;;;;11.36;50.00;101682.31;143742;624;46009;-81
2021/04/22 04:37:06;;;;;;;10.57;3.30;;;;;;;11.43;49.32;101680.44;143743;566;46010;-76
2021/04/22 04:39:33;;;;;;;9.48;2.72;;;;;;;11.52;49.87;101685.53;143743;573;46008;-75
2021/04/22 04:42:00;;;;;;;8.05;2.80;;;;;;;11.59;49.48;101684.56;143741;642;47008;-75
2021/04/22 04:44:27;;;;;;;9.50;2.78;;;;;;;11.72;49.18;101686.97;143743;610;46008;-84
2021/04/22 04:46:54;;;;;;;11.35;3.05;;;;;;;11.87;48.36;101697.22;143740;626;46022;-84
2021/04/22 04:49:22;;;;;;;11.40;3.30;;;;;;;12.05;48.88;101697.84;143740;616;46009;-82
2021/04/22 04:51:49;;;;;;;9.20;3.53;;;;;;;12.26;48.21;101694.78;143741;604;46908;-78
2021/04/22 04:54:16;;;;;;;7.32;2.90;;;;;;;12.47;48.12;101704.03;143744;644;46008;-80
2021/04/22 04:56:43;;;;;;;10.18;3.25;;;;;;;12.66;47.52;101704.53;143742;589;46011;-79
2021/04/22 04:59:11;;;;;;;7.85;2.70;;;;;;;12.87;46.23;101710.22;143742;655;46917;-79
2021/04/22 05:01:38;;;;;;;6.75;2.92;;;;;;;13.09;45.61;101712.41;143742;598;46018;-76
2021/04/22 05:04:06;;;;;;;6.90;2.60;;;;;;;13.32;45.15;101715.34;143743;621;47010;-76
2021/04/22 05:06:33;;;;;;;10.13;3.00;;;;;;;13.58;44.97;101716.53;143741;655;46010;-76
2021/04/22 05:09:00;;;;;;;7.45;3.22;;;;;;;13.83;45.85;101710.66;143741;583;46008;-76
2021/04/22 05:11:27;;;;;;;9.25;3.40;;;;;;;14.05;46.42;101725.03;143742;668;47008;-73
2021/04/22 05:13:55;;;;;;;8.63;3.05;;;;;;;14.29;46.51;101734.97;143743;569;47010;-88
2021/04/22 05:16:22;;;;;;;9.07;3.08;;;;;;;14.51;45.33;101733.47;143741;592;46022;-86
2021/04/22 05:18:49;;;;;;;7.75;2.97;;;;;;;14.72;44.81;101739.97;143742;570;46008;-74
2021/04/22 05:21:16;;;;;;;5.93;3.15;;;;;;;14.93;43.90;101742.88;143744;605;46010;-74
2021/04/22 05:23:43;;;;;;;8.00;3.45;;;;;;;15.07;43.25;101743.31;143741;569;46018;-78
2021/04/22 05:26:11;;;;;;;19.92;3.30;;;;;;;15.18;42.80;101747.41;143740;658;47020;-87
2021/04/22 05:28:38;;;;;;;12.13;3.20;;;;;;;15.29;42.54;101749.72;143742;592;46010;-87
2021/04/22 05:31:06;;;;;;;10.90;3.10;;;;;;;15.42;43.38;101744.91;143741;586;46020;-84
2021/04/22 05:33:33;;;;;;;7.65;3.37;;;;;;;15.50;42.04;101754.34;143743;715;46023;-83
2021/04/22 05:36:00;;;;;;;10.40;3.55;;;;;;;15.57;43.02;101755.87;143740;594;46907;-84
2021/04/22 05:38:27;;;;;;;7.30;3.37;;;;;;;15.69;41.83;101749.31;143742;632;46916;-84
2021/04/22 05:40:54;;;;;;;8.13;3.45;;;;;;;15.78;42.87;101753.44;143741;591;45020;-86
2021/04/22 05:43:24;;;;;;;9.18;3.25;;;;;;;15.93;42.35;101756.53;143739;617;47021;-85
2021/04/22 05:45:51;;;;;;;7.22;3.08;;;;;;;16.07;42.28;101739.25;143739;573;46022;-78
2021/04/22 05:48:18;;;;;;;11.27;3.08;;;;;;;16.23;42.38;101750.16;143740;570;46011;-90
2021/04/22 05:50:45;;;;;;;11.45;3.00;;;;;;;16.38;41.20;101753.19;143742;587;47008;-87
2021/04/22 05:53:13;;;;;;;10.82;3.97;;;;;;;16.50;41.19;101757.19;143743;593;46008;-87
2021/04/22 05:55:40;;;;;;;10.82;3.50;;;;;;;16.64;40.97;101754.88;143742;581;46018;-85
2021/04/22 05:58:08;;;;;;;6.30;3.53;;;;;;;16.82;41.25;101760.44;143741;575;46018;-85
2021/04/22 06:00:40;;;;;;;6.53;3.37;;;;;;;16.97;40.76;101751.06;143746;621;45010;-85
2021/04/22 06:03:07;;;;;;;10.80;3.75;;;;;;;17.12;39.58;101761.06;143745;626;45020;-87
2021/04/22 06:05:35;;;;;;;8.35;3.40;;;;;;;17.19;40.39;101761.72;143739;582;47023;-85
2021/04/22 06:08:03;;;;;;;9.98;3.50;;;;;;;17.28;39.75;101756.03;143742;615;45030;-85
2021/04/22 06:10:30;;;;;;;6.10;2.90;;;;;;;17.34;39.28;101760.25;143742;592;47010;-86
2021/04/22 06:12:58;;;;;;;9.00;3.00;;;;;;;17.39;39.95;101764.44;143743;577;47025;-86
2021/04/22 06:15:25;;;;;;;5.60;2.65;;;;;;;17.45;38.95;101763.31;143742;585;46010;-85
2021/04/22 06:17:52;;;;;;;10.30;3.30;;;;;;;17.56;39.35;101768.19;143741;635;46010;-84
2021/04/22 06:20:21;;;;;;;6.90;3.17;;;;;;;17.65;39.58;101772.28;143740;596;46021;-85
2021/04/22 06:22:50;;;;;;;8.10;2.80;;;;;;;17.72;38.79;101771.94;143742;581;47010;-85
2021/04/22 06:25:20;;;;;;;13.25;3.53;;;;;;;17.77;38.95;101769.97;143743;570;46010;-85
2021/04/22 06:27:49;;;;;;;6.30;3.40;;;;;;;17.85;38.44;101774.97;143743;581;46008;-86
2021/04/22 06:30:17;;;;;;;6.62;2.85;;;;;;;17.91;38.42;101776.50;143741;585;46010;-75
2021/04/22 06:32:44;;;;;;;9.13;2.90;;;;;;;17.95;39.43;101772.84;143743;646;47010;-78
2021/04/22 06:35:14;;;;;;;9.95;3.33;;;;;;;17.97;38.99;101772.75;143739;683;46023;-78
2021/04/22 06:37:43;;;;;;;8.27;2.67;;;;;;;17.95;38.23;101775.50;143742;585;46008;-78
2021/04/22 06:40:18;;;;;;;6.07;3.20;;;;;;;18.04;38.74;101772.44;143742;563;46020;-79
2021/04/22 06:42:45;;;;;;;12.32;2.90;;;;;;;18.10;39.13;101772.16;143741;599;46016;-88
2021/04/22 06:45:15;;;;;;;8.10;2.75;;;;;;;18.17;38.63;101766.59;143740;605;46018;-84
2021/04/22 06:47:44;;;;;;;7.43;2.75;;;;;;;18.27;38.88;101768.78;143742;566;46008;-82
2021/04/22 06:50:14;;;;;;;7.07;3.05;;;;;;;18.31;38.51;101773.97;143742;662;46011;-82
2021/04/22 06:52:42;;;;;;;6.35;2.70;;;;;;;18.30;38.26;101774.91;143740;613;46020;-73
2021/04/22 06:55:15;;;;;;;6.18;2.90;;;;;;;18.32;39.09;101776.56;143740;638;46022;-76
2021/04/22 06:57:42;;;;;;;;;;;;;;;18.46;39.84;101780.41;143743;979;47009;-80
2021/04/22 07:00:13;;;;;;;6.50;2.83;;;;;;;18.55;39.33;101778.19;143749;577;46020;-79
2021/04/22 07:02:40;;;;;;;7.75;3.60;;;;;;;18.68;37.43;101772.31;143740;610;46018;-79
2021/04/22 07:05:09;;;;;;;10.80;4.03;;;;;;;18.63;39.26;101769.00;143738;581;46023;-79
2021/04/22 07:07:37;;;;;;;10.27;4.00;;;;;;;18.54;37.85;101778.28;143739;663;46012;-81
2021/04/22 07:10:10;;;;;;;11.32;4.05;;;;;;;18.39;39.77;101782.47;143741;564;46012;-79
2021/04/22 07:12:37;;;;;;;12.65;4.00;;;;;;;18.41;39.31;101786.78;143741;571;47013;-77
2021/04/22 07:15:07;;;;;;;11.68;4.00;;;;;;;18.41;38.89;101784.12;143738;632;46020;-79
2021/04/22 07:17:34;;;;;;;9.35;3.75;;;;;;;18.30;38.97;101786.37;143740;579;46018;-78
2021/04/22 07:20:02;;;;;;;11.88;4.12;;;;;;;18.20;39.00;101787.72;143741;564;46010;-79
2021/04/22 07:22:29;;;;;;;8.27;3.72;;;;;;;18.13;40.53;101783.63;143739;603;47012;-79
2021/04/22 07:24:57;;;;;;;8.82;4.12;;;;;;;18.10;41.08;101782.78;143737;572;46020;-79
2021/04/22 07:27:25;;;;;;;11.40;4.18;;;;;;;18.09;41.53;101782.87;143739;566;46019;-77
2021/04/22 07:29:52;;;;;;;9.48;3.47;;;;;;;18.21;39.70;101778.81;143739;578;46020;-79
2021/04/22 07:32:23;;;;;;;10.18;3.67;;;;;;;18.31;41.46;101781.94;143739;571;46018;-78
2021/04/22 07:34:50;;;;;;;7.30;3.25;;;;;;;18.48;40.95;101782.06;143737;588;46020;-79
2021/04/22 07:37:18;;;;;;;10.80;3.83;;;;;;;18.63;40.56;101777.88;143740;586;46010;-79
2021/04/22 07:39:46;;;;;;;8.07;4.43;;;;;;;18.72;40.22;101772.09;143741;565;47010;-79
2021/04/22 07:42:16;;;;;;;10.50;4.40;;;;;;;18.78;40.38;101773.63;143741;602;47013;-79
2021/04/22 07:44:47;;;;;;;8.07;4.25;;;;;;;18.85;40.64;101787.50;143741;611;46012;-80
2021/04/22 07:47:17;;;;;;;10.75;3.90;;;;;;;18.81;42.31;101785.91;143740;679;47012;-80
2021/04/22 07:49:46;;;;;;;8.30;4.03;;;;;;;18.87;41.18;101790.97;143742;573;46010;-80
2021/04/22 07:52:16;;;;;;;8.13;3.85;;;;;;;18.88;42.54;101779.44;143742;627;46010;-80
2021/04/22 07:54:44;;;;;;;8.68;4.43;;;;;;;18.93;42.90;101777.41;143739;629;46020;-78
2021/04/22 07:57:12;;;;;;;9.80;4.25;;;;;;;19.00;42.85;101786.84;143740;574;46010;-80
2021/04/22 07:59:39;;;;;;;9.55;4.00;;;;;;;19.04;42.32;101785.78;143741;597;46010;-80
2021/04/22 08:02:08;;;;;;;8.70;4.37;;;;;;;19.08;42.27;101786.47;143741;663;46013;-78
2021/04/22 08:04:36;;;;;;;8.73;4.57;;;;;;;19.16;41.99;101783.47;143739;564;46909;-80
2021/04/22 08:07:03;;;;;;;10.90;5.05;;;;;;;19.19;42.08;101799.28;143739;596;46018;-79
2021/04/22 08:09:31;;;;;;;9.75;4.60;;;;;;;19.20;42.70;101793.03;143740;595;46020;-79
2021/04/22 08:11:59;;;;;;;7.62;4.60;;;;;;;19.26;42.31;101801.59;143739;576;48009;-79
2021/04/22 08:14:26;;;;;;;9.57;4.80;;;;;;;19.24;41.90;101794.62;143741;617;46012;-81
2021/04/22 08:16:53;;;;;;;8.82;4.22;;;;;;;19.31;42.72;101800.50;143741;631;46012;-79
2021/04/22 08:19:20;;;;;;;11.50;5.65;;;;;;;19.47;42.72;101803.31;143738;610;46021;-79
2021/04/22 08:21:47;;;;;;;11.00;5.07;;;;;;;19.62;40.37;101803.41;143739;603;47008;-79
2021/04/22 08:24:14;;;;;;;11.75;5.30;;;;;;;19.71;41.52;101791.47;143737;569;46018;-79
2021/04/22 08:26:44;;;;;;;13.43;5.47;;;;;;;19.78;42.37;101792.00;143740;591;46019;-80
2021/04/22 08:29:12;;;;;;;9.73;5.53;;;;;;;19.85;42.17;101777.47;143742;601;47012;-80
2021/04/22 08:31:39;;;;;;;14.30;6.10;;;;;;;19.91;41.68;101781.63;143740;586;48012;-79
2021/04/22 08:34:08;;;;;;;12.43;5.90;;;;;;;19.90;41.83;101771.91;143742;591;46013;-80
2021/04/22 08:36:36;;;;;;;11.93;5.93;;;;;;;19.86;42.18;101773.00;143739;631;46010;-81
2021/04/22 08:39:07;;;;;;;12.90;5.85;;;;;;;19.83;42.10;101767.81;143740;620;46010;-80
2021/04/22 08:41:35;;;;;;;11.77;5.85;;;;;;;19.86;42.38;101763.22;143743;605;45019;-80
2021/04/22 08:44:04;;;;;;;11.20;5.50;;;;;;;19.91;42.28;101770.97;143739;569;46012;-81
2021/04/22 08:46:33;;;;;;;9.93;5.70;;;;;;;19.92;41.56;101768.22;143741;576;46018;-82
2021/04/22 08:49:00;;;;;;;9.93;5.53;;;;;;;19.97;41.42;101775.13;143739;638;46010;-80
2021/04/22 08:51:28;;;;;;;11.30;5.43;;;;;;;20.03;41.33;101775.66;143743;563;46012;-80
2021/04/22 08:53:55;;;;;;;7.75;5.25;;;;;;;20.11;40.98;101773.47;143739;663;46909;-80
2021/04/22 08:56:22;;;;;;;8.52;4.15;;;;;;;20.14;39.20;101766.28;143742;572;46011;-80
2021/04/22 08:58:50;;;;;;;9.70;4.75;;;;;;;20.16;39.56;101759.03;143742;564;46008;-80
2021/04/22 09:01:19;;;;;;;10.85;5.50;;;;;;;20.25;40.38;101764.75;143740;611;46018;-81
2021/04/22 09:03:48;;;;;;;11.68;5.72;;;;;;;20.30;39.16;101751.19;143739;580;46019;-80
2021/04/22 09:06:16;;;;;;;14.50;5.30;;;;;;;20.29;39.69;101738.78;143740;563;46018;-80
2021/04/22 09:08:50;;;;;;;9.77;4.72;;;;;;;20.35;40.97;101743.78;143738;624;46020;-80
2021/04/22 09:11:25;;;;;;;8.60;4.72;;;;;;;20.55;39.69;101749.88;143741;587;47012;-75
2021/04/22 09:13:53;;;;;;;9.80;4.50;;;;;;;20.73;39.29;101748.06;143737;601;46020;-77
2021/04/22 09:16:27;;;;;;;9.77;5.20;;;;;;;20.89;38.82;101748.94;143738;623;46012;-77
2021/04/22 09:19:12;;;;;;;9.85;5.00;;;;;;;21.07;39.34;101741.69;143740;612;46011;-77
2021/04/22 09:21:44;;;;;;;10.02;5.72;;;;;;;21.21;38.28;101730.25;143741;566;46012;-78
2021/04/22 09:24:16;;;;;;;8.38;4.72;;;;;;;21.24;35.95;101722.06;143734;590;48020;-80
2021/04/22 09:26:58;;;;;;;8.63;4.90;;;;;;;21.28;37.97;101722.75;143741;594;45041;-79
2021/04/22 09:29:44;;;;;;;9.63;4.40;;;;;;;21.46;38.29;101715.50;143742;585;45043;-79
2021/04/22 09:32:22;;;;;;;6.97;3.60;;;;;;;21.46;38.20;101710.16;143742;577;46010;-80
2021/04/22 09:34:53;;;;;;;7.82;4.40;;;;;;;21.51;37.69;101702.72;143737;565;47023;-83
2021/04/22 09:37:24;;;;;;;7.28;4.32;;;;;;;21.55;36.04;101698.09;143740;599;46018;-79
2021/04/22 09:39:52;;;;;;;9.20;4.90;;;;;;;21.62;37.51;101703.00;143741;712;46010;-81
2021/04/22 09:42:21;;;;;;;7.72;3.65;;;;;;;21.62;37.55;101704.78;143742;571;46010;-78
2021/04/22 09:44:48;;;;;;;13.82;5.12;;;;;;;21.59;36.68;101699.62;143738;570;46018;-77
2021/04/22 09:47:20;;;;;;;10.13;4.75;;;;;;;21.64;37.05;101700.22;143740;630;46019;-78
2021/04/22 09:50:01;;;;;;;9.05;4.43;;;;;;;21.67;36.90;101708.06;143741;582;46012;-77
2021/04/22 09:52:35;;;;;;;8.27;4.20;;;;;;;21.67;36.41;101707.22;143738;595;46018;-79
2021/04/22 09:55:03;;;;;;;5.22;3.15;;;;;;;21.66;36.21;101700.97;143738;621;46013;-83
2021/04/22 09:57:32;;;;;;;5.30;2.90;;;;;;;21.55;35.21;101698.09;143739;582;46010;-80
2021/04/22 10:00:01;;;;;;;5.70;2.85;;;;;;;21.48;36.17;101690.38;143742;571;46010;-83
2021/04/22 10:02:28;;;;;;;8.05;3.10;;;;;;;21.55;36.57;101684.72;143742;583;47012;-80
2021/04/22 10:04:56;;;;;;;7.15;3.70;;;;;;;21.61;34.89;101682.56;143741;584;46023;-87
2021/04/22 10:07:32;;;;;;;4.97;3.20;;;;;;;21.64;35.36;101679.69;143738;571;46018;-84
2021/04/22 10:10:12;;;;;;;5.97;3.03;;;;;;;21.58;34.15;101682.75;143740;606;46011;-87
2021/04/22 10:12:40;;;;;;;5.78;2.80;;;;;;;21.59;33.68;101672.91;143739;593;47012;-86
2021/04/22 10:15:24;;;;;;;4.35;2.20;;;;;;;21.62;36.82;101664.69;143740;579;46022;-86
2021/04/22 10:18:06;;;;;;;4.28;2.35;;;;;;;21.70;33.62;101670.44;143742;567;46011;-84
2021/04/22 10:20:37;;;;;;;3.40;2.10;;;;;;;21.73;33.00;101664.91;143739;580;47010;-86
2021/04/22 10:23:07;;;;;;;4.80;2.17;;;;;;;21.83;30.85;101673.25;143738;639;47010;-83
2021/04/22 10:25:40;;;;;;;3.72;2.30;;;;;;;21.77;32.20;101669.16;143741;647;46012;-84
2021/04/22 10:28:16;;;;;;;4.03;1.92;;;;;;;21.89;31.23;101674.69;143741;615;45018;-83
2021/04/22 10:30:51;;;;;;;4.22;2.12;;;;;;;21.78;30.72;101667.31;143739;585;46032;-83
2021/04/22 10:33:19;;;;;;;3.80;2.05;;;;;;;21.75;31.88;101663.03;143741;581;47012;-83
2021/04/22 10:35:48;;;;;;;4.18;2.20;;;;;;;21.86;31.76;101669.53;143741;574;46012;-84
2021/04/22 10:38:15;;;;;;;5.10;2.00;;;;;;;21.95;30.33;101663.63;143740;586;46010;-85
2021/04/22 10:40:52;;;;;;;3.40;1.62;;;;;;;22.04;31.12;101664.88;143741;578;46010;-84
2021/04/22 10:43:25;;;;;;;3.08;1.70;;;;;;;22.12;30.27;101655.41;143740;563;46018;-84
2021/04/22 10:45:56;;;;;;;3.77;1.90;;;;;;;22.34;30.43;101650.56;143737;585;46018;-83
2021/04/22 10:48:24;;;;;;;3.33;1.17;;;;;;;22.47;26.42;101644.34;143741;604;46010;-87
2021/04/22 10:50:53;;;;;;;2.90;1.40;;;;;;;22.46;29.04;101637.28;143737;585;46020;-84
2021/04/22 10:53:23;;;;;;;4.90;1.40;;;;;;;22.54;28.79;101628.78;143741;568;46016;-86
2021/04/22 10:55:54;;;;;;;3.05;1.30;;;;;;;22.68;29.85;101635.03;143741;590;46023;-87
2021/04/22 10:58:49;;;;;;;1.70;1.00;;;;;;;22.73;28.60;101628.44;143742;644;46010;-82
2021/04/22 11:01:17;;;;;;;6.10;1.20;;;;;;;22.77;28.51;101631.75;143740;609;47011;-86
2021/04/22 11:03:47;;;;;;;2.12;1.20;;;;;;;22.89;28.82;101632.78;143738;723;46019;-86
2021/04/22 11:06:22;;;;;;;2.12;1.10;;;;;;;23.01;27.98;101620.41;143737;563;47022;-86
2021/04/22 11:08:55;;;;;;;2.03;1.10;;;;;;;23.09;28.73;101635.00;143743;614;45018;-86
2021/04/22 11:11:30;;;;;;;3.80;1.37;;;;;;;23.11;27.74;101627.75;143740;586;46018;-86
2021/04/22 11:14:17;;;;;;;1.90;1.02;;;;;;;23.19;32.66;101629.91;143742;626;47012;-87
2021/04/22 11:16:54;;;;;;;2.78;1.20;;;;;;;23.28;30.11;101618.59;143738;638;46022;-87
2021/04/22 11:19:36;;;;;;;2.47;1.30;;;;;;;23.21;29.52;101605.69;143739;577;46913;-86
2021/04/22 11:22:29;;;;;;;2.17;1.30;;;;;;;23.31;32.70;101609.50;143741;597;46010;-87
2021/04/22 11:25:00;;;;;;;2.40;1.13;;;;;;;23.49;28.53;101600.16;143740;639;46999;-85
2021/04/22 11:27:31;;;;;;;6.22;1.40;;;;;;;23.49;27.56;101589.44;143739;582;46018;-86
2021/04/22 11:30:06;;;;;;;4.75;1.35;;;;;;;23.24;28.95;101595.66;143740;585;46010;-84
2021/04/22 11:32:40;;;;;;;2.45;1.30;;;;;;;23.09;30.79;101602.00;143739;613;46010;-85
2021/04/22 11:35:20;;;;;;;3.15;1.50;;;;;;;23.05;32.14;101589.78;143741;570;47012;-85